createdAt,value
2023-08-25T00:00:48.065Z,19.92
2023-08-25T00:03:35.888Z,20.40
2023-08-25T00:06:24.517Z,20.85
2023-08-25T00:09:12.577Z,20.70
2023-08-25T00:12:00.322Z,20.58
2023-08-25T00:14:48.458Z,21.40
2023-08-25T00:17:37.606Z,20.70
2023-08-25T00:20:25.798Z,21.33
2023-08-25T00:23:13.639Z,22.73
2023-08-25T00:26:01.378Z,20.40
2023-08-25T00:28:49.275Z,20.70
2023-08-25T00:31:37.028Z,21.08
2023-08-25T00:34:26.423Z,21.45
2023-08-25T00:37:14.249Z,22.00
2023-08-25T00:40:02.185Z,20.42
2023-08-25T00:42:49.974Z,21.27
2023-08-25T00:45:40.186Z,20.45
2023-08-25T00:48:29.335Z,20.38
2023-08-25T00:51:19.251Z,21.35
2023-08-25T00:54:08.113Z,20.05
2023-08-25T00:56:55.958Z,21.05
2023-08-25T00:59:44.247Z,22.02
2023-08-25T01:02:32.276Z,22.98
2023-08-25T01:05:20.321Z,24.33
2023-08-25T01:08:10.709Z,24.80
2023-08-25T01:11:10.465Z,23.38
2023-08-25T01:14:08.394Z,24.02
2023-08-25T01:17:05.775Z,21.95
2023-08-25T01:19:58.146Z,23.10
2023-08-25T01:22:53.434Z,24.50
2023-08-25T01:25:43.298Z,24.52
2023-08-25T01:28:31.216Z,25.33
2023-08-25T01:31:20.872Z,24.25
2023-08-25T01:34:09.359Z,24.08
2023-08-25T01:37:05.028Z,23.52
2023-08-25T01:39:57.118Z,24.05
2023-08-25T01:42:49.134Z,22.52
2023-08-25T01:45:37.744Z,20.67
2023-08-25T01:48:26.996Z,21.33
2023-08-25T01:51:15.916Z,22.05
2023-08-25T01:54:04.538Z,21.10
2023-08-25T01:56:52.273Z,20.60
2023-08-25T01:59:41.666Z,21.15
2023-08-25T02:02:29.499Z,20.27
2023-08-25T02:05:17.490Z,19.90
2023-08-25T02:08:05.732Z,18.75
2023-08-25T02:10:53.654Z,18.17
2023-08-25T02:13:41.381Z,18.55
2023-08-25T02:16:30.867Z,17.85
2023-08-25T02:19:18.943Z,18.67
2023-08-25T02:22:08.404Z,18.77
2023-08-25T02:24:57.669Z,20.02
2023-08-25T02:27:45.463Z,18.95
2023-08-25T02:30:33.545Z,19.50
2023-08-25T02:33:22.747Z,19.23
2023-08-25T02:36:10.685Z,19.98
2023-08-25T02:38:58.650Z,19.98
2023-08-25T02:41:46.410Z,20.75
2023-08-25T02:44:34.448Z,20.40
2023-08-25T02:47:22.285Z,19.65
2023-08-25T02:50:12.093Z,19.70
2023-08-25T02:52:59.848Z,19.45
2023-08-25T02:55:48.686Z,19.58
2023-08-25T02:58:36.565Z,20.48
2023-08-25T03:01:24.436Z,19.08
2023-08-25T03:04:12.349Z,18.75
2023-08-25T03:07:01.446Z,19.88
2023-08-25T03:09:49.417Z,23.70
2023-08-25T03:12:37.308Z,36.38
2023-08-25T03:15:25.226Z,38.05
2023-08-25T03:18:13.174Z,28.77
2023-08-25T03:21:01.156Z,18.83
2023-08-25T03:23:50.628Z,18.92
2023-08-25T03:26:38.416Z,18.95
2023-08-25T03:29:26.611Z,16.58
2023-08-25T03:32:14.413Z,16.73
2023-08-25T03:35:02.379Z,17.08
2023-08-25T03:37:51.471Z,18.38
2023-08-25T03:40:40.947Z,17.45
2023-08-25T03:43:29.069Z,18.98
2023-08-25T03:46:16.829Z,19.70
2023-08-25T03:49:05.419Z,21.65
2023-08-25T03:51:53.140Z,17.20
2023-08-25T03:54:40.980Z,20.80
2023-08-25T03:57:30.712Z,18.70
2023-08-25T04:00:18.746Z,20.73
2023-08-25T04:03:07.646Z,20.95
2023-08-25T04:05:55.543Z,20.13
2023-08-25T04:08:43.265Z,21.30
2023-08-25T04:11:31.284Z,19.75
2023-08-25T04:14:20.403Z,18.52
2023-08-25T04:17:08.381Z,19.55
2023-08-25T04:19:56.210Z,17.73
2023-08-25T04:22:44.231Z,16.85
2023-08-25T04:25:32.151Z,16.95
2023-08-25T04:28:21.131Z,18.50
2023-08-25T04:31:10.337Z,18.08
2023-08-25T04:33:58.273Z,19.15
2023-08-25T04:36:46.790Z,17.25
2023-08-25T04:39:34.527Z,18.50
2023-08-25T04:42:22.569Z,18.85
2023-08-25T04:45:12.313Z,19.38
2023-08-25T04:48:01.512Z,16.45
2023-08-25T04:50:49.605Z,16.13
2023-08-25T04:53:37.296Z,18.13
2023-08-25T04:56:25.183Z,19.88
2023-08-25T04:59:13.846Z,18.45
2023-08-25T05:02:01.967Z,17.83
2023-08-25T05:04:51.250Z,19.58
2023-08-25T05:07:39.062Z,17.35
2023-08-25T05:10:26.893Z,17.10
2023-08-25T05:13:14.989Z,19.77
2023-08-25T05:16:02.838Z,18.35
2023-08-25T05:18:50.777Z,19.02
2023-08-25T05:21:40.076Z,19.42
2023-08-25T05:24:29.245Z,20.08
2023-08-25T05:27:17.251Z,20.27
2023-08-25T05:30:05.641Z,21.45
2023-08-25T05:32:53.649Z,22.13
2023-08-25T05:35:41.967Z,21.73
2023-08-25T05:38:31.102Z,21.58
2023-08-25T05:41:19.160Z,20.20
2023-08-25T05:44:07.336Z,19.27
2023-08-25T05:46:55.214Z,20.17
2023-08-25T05:49:42.967Z,20.08
2023-08-25T05:52:31.014Z,21.55
2023-08-25T05:55:20.266Z,22.73
2023-08-25T05:58:08.088Z,24.73
2023-08-25T06:00:57.936Z,20.85
2023-08-25T06:03:45.744Z,17.80
2023-08-25T06:06:33.684Z,21.85
2023-08-25T06:09:22.985Z,22.52
2023-08-25T06:12:12.507Z,20.83
2023-08-25T06:15:00.501Z,21.02
2023-08-25T06:17:48.286Z,23.30
2023-08-25T06:20:36.460Z,20.55
2023-08-25T06:23:24.129Z,19.15
2023-08-25T06:26:11.941Z,20.75
2023-08-25T06:29:01.046Z,20.38
2023-08-25T06:31:48.848Z,19.42
2023-08-25T06:34:36.728Z,21.88
2023-08-25T06:37:24.666Z,18.42
2023-08-25T06:40:13.329Z,16.88
2023-08-25T06:43:01.048Z,18.13
2023-08-25T06:45:51.052Z,16.08
2023-08-25T06:48:39.033Z,15.27
2023-08-25T06:51:26.941Z,18.02
2023-08-25T06:54:14.707Z,17.13
2023-08-25T06:57:02.425Z,14.48
2023-08-25T06:59:50.442Z,15.82
2023-08-25T07:02:40.997Z,14.15
2023-08-25T07:05:28.741Z,16.20
2023-08-25T07:08:16.500Z,17.73
2023-08-25T07:11:05.180Z,17.25
2023-08-25T07:13:52.938Z,18.23
2023-08-25T07:16:40.796Z,17.35
2023-08-25T07:19:30.189Z,18.83
2023-08-25T07:22:25.508Z,18.95
2023-08-25T07:25:14.312Z,15.70
2023-08-25T07:28:02.360Z,16.38
2023-08-25T07:30:53.549Z,17.42
2023-08-25T07:33:44.110Z,18.80
2023-08-25T07:36:33.650Z,19.83
2023-08-25T07:39:21.713Z,19.58
2023-08-25T07:42:09.823Z,18.40
2023-08-25T07:44:57.873Z,17.27
2023-08-25T07:47:46.057Z,20.48
2023-08-25T07:50:34.413Z,18.50
2023-08-25T07:53:23.696Z,18.02
2023-08-25T07:56:11.688Z,17.73
2023-08-25T07:58:59.553Z,17.95
2023-08-25T08:01:47.653Z,18.90
2023-08-25T08:04:36.092Z,19.70
2023-08-25T08:07:24.144Z,18.38
2023-08-25T08:10:15.824Z,17.70
2023-08-25T08:13:05.555Z,17.47
2023-08-25T08:15:53.551Z,17.52
2023-08-25T08:18:41.739Z,19.05
2023-08-25T08:21:32.384Z,17.35
2023-08-25T08:24:20.107Z,15.75
2023-08-25T08:27:11.020Z,13.70
2023-08-25T08:29:59.161Z,15.20
2023-08-25T08:32:51.097Z,14.80
2023-08-25T08:35:39.265Z,13.40
2023-08-25T08:38:28.163Z,12.55
2023-08-25T08:41:17.442Z,13.60
2023-08-25T08:44:09.484Z,13.93
2023-08-25T08:46:59.002Z,13.18
2023-08-25T08:49:47.606Z,13.55
2023-08-25T08:52:35.411Z,13.55
2023-08-25T08:55:23.446Z,14.52
2023-08-25T08:58:11.319Z,13.15
2023-08-25T09:01:07.036Z,13.90
2023-08-25T09:03:57.461Z,14.35
2023-08-25T09:06:45.642Z,14.68
2023-08-25T09:09:35.701Z,15.43
2023-08-25T09:12:23.760Z,15.35
2023-08-25T09:15:27.110Z,15.77
2023-08-25T09:18:16.370Z,16.20
2023-08-25T09:21:05.672Z,15.57
2023-08-25T09:24:00.014Z,15.02
2023-08-25T09:26:50.418Z,15.00
2023-08-25T09:29:43.578Z,15.90
2023-08-25T09:32:31.515Z,15.63
2023-08-25T09:35:23.794Z,14.60
2023-08-25T09:38:22.877Z,15.30
2023-08-25T09:41:12.326Z,15.40
2023-08-25T09:44:01.044Z,15.30
2023-08-25T09:46:48.895Z,15.70
2023-08-25T09:49:40.656Z,15.48
2023-08-25T09:52:36.797Z,16.20
2023-08-25T09:55:25.593Z,16.33
2023-08-25T09:58:14.129Z,21.60
2023-08-25T10:01:02.331Z,18.88
2023-08-25T10:03:50.496Z,24.58
2023-08-25T10:06:40.150Z,22.65
2023-08-25T10:09:29.574Z,19.60
2023-08-25T10:12:19.288Z,15.27
2023-08-25T10:15:10.940Z,12.63
2023-08-25T10:18:02.384Z,13.20
2023-08-25T10:20:50.863Z,12.98
2023-08-25T10:23:41.904Z,13.68
2023-08-25T10:26:32.710Z,12.25
2023-08-25T10:29:22.508Z,12.57
2023-08-25T10:32:12.292Z,13.38
2023-08-25T10:35:00.328Z,13.18
2023-08-25T10:37:54.946Z,13.25
2023-08-25T10:40:43.846Z,21.23
2023-08-25T10:43:35.610Z,15.02
2023-08-25T10:46:39.650Z,16.38
2023-08-25T10:49:39.736Z,13.57
2023-08-25T10:52:27.976Z,17.23
2023-08-25T10:55:26.956Z,14.60
2023-08-25T10:58:20.297Z,15.23
2023-08-25T11:01:10.031Z,16.30
2023-08-25T11:04:09.534Z,16.50
2023-08-25T11:06:59.051Z,15.35
2023-08-25T11:09:47.392Z,13.45
2023-08-25T11:12:35.891Z,15.20
2023-08-25T11:15:24.789Z,14.05
2023-08-25T11:18:14.262Z,13.63
2023-08-25T11:21:03.231Z,13.25
2023-08-25T11:23:51.035Z,11.98
2023-08-25T11:26:39.677Z,12.65
2023-08-25T11:29:27.943Z,11.68
2023-08-25T11:32:16.338Z,14.90
2023-08-25T11:35:06.855Z,15.50
2023-08-25T11:37:54.850Z,14.80
2023-08-25T11:40:43.175Z,13.02
2023-08-25T11:43:33.790Z,14.27
2023-08-25T11:46:21.955Z,13.02
2023-08-25T11:49:10.174Z,12.35
2023-08-25T11:52:02.612Z,12.23
2023-08-25T11:54:54.040Z,11.82
2023-08-25T11:57:43.471Z,11.60
2023-08-25T12:00:38.121Z,11.35
2023-08-25T12:06:16.463Z,11.23
2023-08-25T12:09:10.518Z,11.68
2023-08-25T12:12:05.525Z,10.55
2023-08-25T12:14:59.914Z,11.50
2023-08-25T12:17:48.781Z,11.23
2023-08-25T12:20:47.794Z,11.70
2023-08-25T12:23:37.455Z,10.90
2023-08-25T12:26:28.141Z,11.48
2023-08-25T12:29:16.384Z,11.88
2023-08-25T12:32:05.751Z,11.68
2023-08-25T12:34:53.511Z,12.18
2023-08-25T12:37:41.306Z,10.93
2023-08-25T12:40:29.094Z,12.32
2023-08-25T12:43:18.312Z,11.20
2023-08-25T12:46:06.259Z,11.48
2023-08-25T12:48:54.199Z,11.38
2023-08-25T12:51:42.386Z,11.30
2023-08-25T12:54:30.409Z,11.15
2023-08-25T12:57:26.730Z,10.98
2023-08-25T13:00:17.192Z,11.45
2023-08-25T13:03:07.959Z,11.57
2023-08-25T13:06:10.546Z,11.25
2023-08-25T13:09:11.397Z,10.77
2023-08-25T13:11:59.805Z,9.82
2023-08-25T13:14:53.074Z,9.77
2023-08-25T13:18:04.389Z,10.27
2023-08-25T13:20:55.345Z,9.00
2023-08-25T13:24:02.024Z,10.00
2023-08-25T13:26:56.259Z,10.50
2023-08-25T13:29:44.190Z,10.65
2023-08-25T13:32:32.292Z,10.20
2023-08-25T13:35:21.758Z,10.27
2023-08-25T13:38:10.720Z,9.80
2023-08-25T13:40:58.375Z,9.25
2023-08-25T13:43:46.168Z,10.18
2023-08-25T13:46:34.137Z,9.73
2023-08-25T13:49:22.197Z,10.25
2023-08-25T13:52:11.423Z,10.43
2023-08-25T13:54:59.908Z,9.30
2023-08-25T13:57:48.121Z,11.73
2023-08-25T14:00:36.068Z,10.85
2023-08-25T14:03:25.666Z,14.60
2023-08-25T14:06:13.583Z,11.57
2023-08-25T14:09:03.053Z,14.88
2023-08-25T14:11:50.996Z,15.52
2023-08-25T14:14:39.024Z,11.88
2023-08-25T14:17:26.849Z,11.32
2023-08-25T14:20:14.497Z,11.80
2023-08-25T14:23:04.145Z,11.38
2023-08-25T14:25:53.375Z,11.23
2023-08-25T14:28:41.361Z,20.83
2023-08-25T14:31:29.518Z,18.05
2023-08-25T14:34:17.446Z,15.07
2023-08-25T14:37:05.551Z,17.15
2023-08-25T14:39:54.654Z,15.20
2023-08-25T14:42:47.481Z,15.40
2023-08-25T14:45:37.013Z,14.57
2023-08-25T14:48:25.250Z,15.55
2023-08-25T14:51:13.165Z,14.23
2023-08-25T14:54:01.138Z,14.27
2023-08-25T14:56:48.894Z,13.80
2023-08-25T14:59:38.014Z,13.75
2023-08-25T15:02:26.094Z,14.05
2023-08-25T15:05:14.421Z,13.10
2023-08-25T15:08:02.317Z,13.75
2023-08-25T15:10:49.969Z,14.70
2023-08-25T15:13:37.929Z,14.88
2023-08-25T15:16:27.038Z,15.68
2023-08-25T15:19:14.800Z,17.67
2023-08-25T15:22:03.085Z,22.90
2023-08-25T15:24:50.721Z,25.70
2023-08-25T15:27:38.703Z,22.40
2023-08-25T15:30:26.435Z,18.67
2023-08-25T15:33:15.726Z,18.70
2023-08-25T15:36:04.160Z,16.90
2023-08-25T15:38:51.832Z,19.85
2023-08-25T15:41:39.566Z,14.73
2023-08-25T15:44:27.320Z,17.08
2023-08-25T15:47:15.173Z,15.85
2023-08-25T15:50:04.244Z,14.85
2023-08-25T15:52:52.153Z,20.65
2023-08-25T15:55:39.987Z,19.90
2023-08-25T15:58:27.928Z,19.02
2023-08-25T16:01:15.648Z,48.20
2023-08-25T16:04:03.469Z,22.98
2023-08-25T16:06:52.947Z,19.88
2023-08-25T16:09:40.589Z,14.00
2023-08-25T16:12:28.606Z,16.73
2023-08-25T16:15:16.926Z,14.15
2023-08-25T16:18:05.178Z,13.63
2023-08-25T16:20:53.515Z,14.00
2023-08-25T16:23:42.638Z,14.30
2023-08-25T16:26:31.038Z,14.27
2023-08-25T16:29:18.774Z,16.05
2023-08-25T16:32:08.189Z,13.88
2023-08-25T16:34:55.951Z,13.43
2023-08-25T16:37:43.998Z,14.65
2023-08-25T16:40:33.024Z,14.63
2023-08-25T16:43:20.742Z,15.48
2023-08-25T16:46:08.565Z,15.05
2023-08-25T16:48:56.484Z,15.15
2023-08-25T16:51:44.533Z,16.25
2023-08-25T16:54:32.340Z,16.83
2023-08-25T16:57:21.675Z,17.08
2023-08-25T17:00:10.641Z,16.27
2023-08-25T17:02:59.297Z,17.48
2023-08-25T17:05:47.303Z,17.55
2023-08-25T17:08:35.330Z,17.70
2023-08-25T17:11:23.218Z,18.67
2023-08-25T17:14:12.599Z,18.42
2023-08-25T17:17:01.044Z,18.27
2023-08-25T17:19:48.986Z,18.42
2023-08-25T17:22:36.700Z,19.10
2023-08-25T17:25:24.491Z,20.63
2023-08-25T17:28:12.146Z,20.75
2023-08-25T17:31:11.787Z,20.27
2023-08-25T17:33:59.652Z,22.30
2023-08-25T17:36:48.319Z,21.08
2023-08-25T17:39:36.236Z,22.88
2023-08-25T17:42:23.977Z,22.75
2023-08-25T17:45:12.161Z,21.00
2023-08-25T17:48:01.337Z,21.67
2023-08-25T17:50:49.951Z,21.23
2023-08-25T17:53:37.642Z,21.65
2023-08-25T17:56:25.454Z,22.10
2023-08-25T17:59:13.181Z,21.63
2023-08-25T18:02:01.068Z,21.60
2023-08-25T18:04:50.484Z,22.50
2023-08-25T18:07:38.387Z,22.73
2023-08-25T18:10:27.019Z,23.92
2023-08-25T18:13:15.092Z,24.42
2023-08-25T18:16:06.881Z,23.40
2023-08-25T18:18:54.854Z,25.80
2023-08-25T18:21:43.930Z,28.83
2023-08-25T18:24:31.932Z,25.20
2023-08-25T18:27:19.716Z,21.02
2023-08-25T18:30:08.904Z,19.67
2023-08-25T18:32:56.907Z,16.13
2023-08-25T18:35:44.885Z,15.07
2023-08-25T18:38:34.012Z,15.35
2023-08-25T18:41:21.707Z,11.52
2023-08-25T18:44:09.640Z,10.80
2023-08-25T18:46:57.602Z,11.43
2023-08-25T18:49:45.544Z,9.93
2023-08-25T18:52:33.579Z,11.50
2023-08-25T18:55:22.701Z,10.13
2023-08-25T18:58:10.487Z,10.60
2023-08-25T19:01:00.014Z,11.13
2023-08-25T19:03:48.122Z,9.48
2023-08-25T19:06:36.729Z,8.65
2023-08-25T19:09:24.756Z,7.57
2023-08-25T19:12:13.928Z,7.53
2023-08-25T19:15:01.755Z,6.90
2023-08-25T19:17:49.477Z,6.90
2023-08-25T19:20:37.227Z,6.80
2023-08-25T19:23:25.109Z,9.23
2023-08-25T19:26:13.025Z,7.30
2023-08-25T19:29:02.453Z,7.43
2023-08-25T19:31:50.171Z,6.85
2023-08-25T19:34:38.039Z,6.93
2023-08-25T19:37:25.829Z,7.07
2023-08-25T19:40:17.636Z,7.35
2023-08-25T19:43:06.137Z,6.93
2023-08-25T19:45:55.211Z,6.70
2023-08-25T19:48:44.025Z,6.50
2023-08-25T19:51:31.950Z,7.05
2023-08-25T19:54:19.850Z,6.82
2023-08-25T19:57:08.205Z,7.78
2023-08-25T19:59:56.152Z,8.32
2023-08-25T20:02:46.649Z,8.90
2023-08-25T20:05:34.460Z,7.20
2023-08-25T20:08:22.369Z,7.07
2023-08-25T20:11:10.735Z,7.70
2023-08-25T20:13:58.508Z,6.93
2023-08-25T20:16:46.453Z,7.10
2023-08-25T20:19:35.628Z,6.82
2023-08-25T20:22:23.586Z,6.47
2023-08-25T20:25:11.370Z,7.65
2023-08-25T20:27:59.132Z,7.03
2023-08-25T20:30:47.651Z,7.47
2023-08-25T20:33:35.417Z,7.72
2023-08-25T20:36:24.535Z,7.40
2023-08-25T20:39:12.188Z,7.78
2023-08-25T20:42:00.131Z,7.93
2023-08-25T20:44:47.988Z,7.25
2023-08-25T20:47:35.891Z,6.68
2023-08-25T20:50:24.603Z,6.97
2023-08-25T20:53:13.705Z,6.53
2023-08-25T20:56:04.527Z,6.40
2023-08-25T20:58:52.414Z,6.55
2023-08-25T21:01:40.420Z,5.78
2023-08-25T21:04:28.256Z,6.38
2023-08-25T21:07:16.038Z,6.22
2023-08-25T21:10:05.658Z,5.75
2023-08-25T21:12:53.674Z,6.15
2023-08-25T21:15:41.740Z,6.18
2023-08-25T21:18:29.525Z,6.13
2023-08-25T21:21:17.502Z,6.13
2023-08-25T21:24:06.856Z,7.07
2023-08-25T21:26:56.085Z,6.75
2023-08-25T21:29:43.829Z,6.05
2023-08-25T21:32:31.795Z,6.40
2023-08-25T21:35:19.611Z,5.88
2023-08-25T21:38:07.377Z,7.03
2023-08-25T21:40:58.919Z,6.82
2023-08-25T21:43:48.022Z,6.88
2023-08-25T21:46:37.429Z,6.78
2023-08-25T21:49:25.350Z,7.43
2023-08-25T21:52:13.764Z,7.70
2023-08-25T21:55:02.180Z,7.95
2023-08-25T21:57:49.840Z,6.70
2023-08-25T22:00:39.162Z,7.53
2023-08-25T22:03:26.966Z,7.63
2023-08-25T22:06:14.930Z,7.25
2023-08-25T22:09:02.923Z,7.43
2023-08-25T22:11:51.293Z,7.55
2023-08-25T22:14:39.134Z,7.68
2023-08-25T22:17:28.461Z,7.15
2023-08-25T22:20:16.466Z,7.07
2023-08-25T22:23:04.144Z,7.35
2023-08-25T22:25:52.304Z,7.60
2023-08-25T22:28:40.087Z,8.32
2023-08-25T22:31:27.862Z,8.48
2023-08-25T22:34:17.132Z,8.32
2023-08-25T22:37:05.148Z,7.57
2023-08-25T22:39:53.407Z,7.43
2023-08-25T22:42:41.430Z,8.50
2023-08-25T22:45:29.097Z,8.70
2023-08-25T22:48:17.613Z,7.78
2023-08-25T22:51:08.706Z,7.57
2023-08-25T22:53:57.635Z,7.22
2023-08-25T22:56:45.335Z,7.72
2023-08-25T22:59:33.308Z,8.63
2023-08-25T23:02:21.054Z,6.85
2023-08-25T23:05:09.237Z,6.47
2023-08-25T23:07:58.613Z,7.22
2023-08-25T23:10:46.614Z,6.82
2023-08-25T23:13:34.816Z,7.07
2023-08-25T23:16:22.544Z,7.78
2023-08-25T23:19:12.186Z,6.32
2023-08-25T23:21:59.974Z,6.70
2023-08-25T23:24:49.198Z,7.25
2023-08-25T23:27:36.900Z,6.32
2023-08-25T23:30:24.763Z,6.45
2023-08-25T23:33:12.717Z,5.93
2023-08-25T23:36:02.632Z,5.60
2023-08-25T23:38:50.344Z,5.45
2023-08-25T23:41:39.489Z,5.30
2023-08-25T23:44:29.034Z,5.55
2023-08-25T23:47:17.353Z,5.03
2023-08-25T23:50:05.574Z,5.88
2023-08-25T23:52:53.588Z,5.38
2023-08-25T23:55:41.497Z,5.50
2023-08-25T23:58:30.649Z,5.75
